Time;durP1;ratioP1;P1;durP2;ratioP2;P2;SDS_P1;SDS_P2;PMS_P1;PMS_P2;Temp;Humidity;BMP_temperature;BMP_pressure;BME280_temperature;BME280_humidity;BME280_pressure;Samples;Min_cycle;Max_cycle;Signal;HPM_P1;HPM_P2
2022/12/31 00:00:35;;;;;;;12.77;6.97;;;;;;;9.54;100.00;99827.44;5000099;28;20217;-44
2022/12/31 00:03:01;;;;;;;9.85;6.00;;;;;;;9.60;100.00;99823.56;5006572;28;20205;-45
2022/12/31 00:05:30;;;;;;;10.13;5.93;;;;;;;9.70;100.00;99843.56;4995463;28;20227;-45
2022/12/31 00:07:56;;;;;;;13.25;6.25;;;;;;;9.71;100.00;99845.31;5001449;28;20182;-45
2022/12/31 00:10:22;;;;;;;11.80;5.85;;;;;;;9.81;100.00;99853.72;5000486;28;20169;-45
2022/12/31 00:12:47;;;;;;;10.43;5.97;;;;;;;9.81;100.00;99854.59;4993387;28;20213;-47
2022/12/31 00:15:13;;;;;;;15.60;5.78;;;;;;;9.82;100.00;99850.13;5002517;28;20542;-46
2022/12/31 00:17:38;;;;;;;15.85;5.30;;;;;;;9.88;100.00;99853.34;5001678;28;20234;-45
2022/12/31 00:20:04;;;;;;;10.75;5.03;;;;;;;9.81;100.00;99861.75;4994809;28;20201;-46
2022/12/31 00:22:30;;;;;;;8.40;4.30;;;;;;;9.84;100.00;99858.94;5004967;28;20275;-45
2022/12/31 00:24:55;;;;;;;8.98;5.03;;;;;;;9.93;100.00;99868.28;5003228;28;20276;-45
2022/12/31 00:27:21;;;;;;;12.95;4.65;;;;;;;9.82;100.00;99872.38;4998932;28;20184;-45
2022/12/31 00:29:47;;;;;;;12.00;4.28;;;;;;;9.93;100.00;99870.94;5005347;28;20187;-45
2022/12/31 00:32:12;;;;;;;8.10;3.97;;;;;;;9.97;100.00;99860.03;4997427;28;20198;-45
2022/12/31 00:34:38;;;;;;;9.15;4.28;;;;;;;9.94;100.00;99878.06;5005225;28;20186;-44
2022/12/31 00:37:03;;;;;;;11.93;4.47;;;;;;;9.96;100.00;99871.66;4999799;28;20530;-44
2022/12/31 00:39:29;;;;;;;8.23;3.90;;;;;;;9.91;100.00;99881.75;5005946;28;20193;-45
2022/12/31 00:41:54;;;;;;;9.80;4.22;;;;;;;9.95;100.00;99874.41;5002764;28;20200;-47
2022/12/31 00:44:20;;;;;;;9.20;3.47;;;;;;;9.97;100.00;99892.16;4998736;28;20708;-44
2022/12/31 00:46:45;;;;;;;7.65;3.03;;;;;;;10.00;100.00;99880.41;4998703;28;20176;-46
2022/12/31 00:49:11;;;;;;;12.18;3.35;;;;;;;9.94;100.00;99880.72;5007369;28;20168;-46
2022/12/31 00:51:36;;;;;;;11.40;3.42;;;;;;;9.99;100.00;99876.00;5001043;28;20181;-45
2022/12/31 00:54:02;;;;;;;10.68;3.83;;;;;;;9.99;100.00;99879.56;4997923;28;20200;-45
2022/12/31 00:56:29;;;;;;;12.10;3.38;;;;;;;9.93;100.00;99873.63;5001447;28;20170;-45
2022/12/31 00:58:55;;;;;;;9.43;3.35;;;;;;;9.95;100.00;99887.78;4992371;28;20199;-45
2022/12/31 01:01:21;;;;;;;7.40;2.92;;;;;;;9.96;100.00;99885.06;5002161;28;20686;-44
2022/12/31 01:03:49;;;;;;;5.88;2.63;;;;;;;9.98;100.00;99876.94;4999528;28;20232;-45
2022/12/31 01:06:15;;;;;;;10.98;3.20;;;;;;;9.93;100.00;99882.53;4994869;28;20212;-45
2022/12/31 01:08:41;;;;;;;12.75;3.00;;;;;;;9.93;100.00;99884.31;5002860;28;20198;-45
2022/12/31 01:11:20;;;;;;;7.50;3.20;;;;;;;9.93;100.00;99897.72;4994262;28;20275;-46
2022/12/31 01:14:08;;;;;;;5.35;2.80;;;;;;;9.94;100.00;99900.31;4994265;28;20193;-44
2022/12/31 01:16:36;;;;;;;8.75;3.00;;;;;;;9.95;100.00;99895.81;5004953;28;20196;-45
2022/12/31 01:19:06;;;;;;;9.57;3.20;;;;;;;9.92;100.00;99883.47;4995316;28;20272;-46
2022/12/31 01:21:33;;;;;;;7.65;2.80;;;;;;;9.87;100.00;99898.91;5000854;28;20738;-44
2022/12/31 01:23:59;;;;;;;8.70;2.83;;;;;;;9.96;100.00;99900.25;4999991;28;20291;-45
2022/12/31 01:26:25;;;;;;;10.77;3.45;;;;;;;9.99;100.00;99892.06;5003048;28;20260;-46
2022/12/31 01:28:50;;;;;;;10.65;3.17;;;;;;;9.92;100.00;99882.63;4999350;28;20192;-46
2022/12/31 01:31:18;;;;;;;8.05;2.88;;;;;;;9.89;100.00;99886.31;4994514;28;20561;-45
2022/12/31 01:33:44;;;;;;;8.63;3.10;;;;;;;9.87;100.00;99894.41;4997753;28;20557;-45
2022/12/31 01:36:14;;;;;;;8.60;2.83;;;;;;;9.85;100.00;99906.13;4991814;28;20294;-44
2022/12/31 01:38:41;;;;;;;10.15;2.75;;;;;;;9.89;100.00;99916.59;4994359;28;20184;-45
2022/12/31 01:41:10;;;;;;;8.63;2.40;;;;;;;9.93;100.00;99916.44;4998037;28;20224;-45
2022/12/31 01:43:46;;;;;;;9.55;2.63;;;;;;;9.89;100.00;99934.47;4998613;28;20244;-45
2022/12/31 01:46:19;;;;;;;12.25;2.50;;;;;;;9.89;100.00;99927.31;4996765;28;20812;-45
2022/12/31 01:48:50;;;;;;;7.53;2.45;;;;;;;9.94;100.00;99929.75;5000816;28;20557;-46
2022/12/31 01:51:16;;;;;;;9.23;2.70;;;;;;;9.87;100.00;99923.84;4996781;28;20273;-45
2022/12/31 01:53:42;;;;;;;12.95;2.65;;;;;;;9.93;100.00;99930.72;4995144;28;20291;-45
2022/12/31 01:56:08;;;;;;;8.55;2.63;;;;;;;9.89;100.00;99932.66;5001336;28;20187;-42
2022/12/31 01:58:46;;;;;;;9.40;2.92;;;;;;;9.94;100.00;99935.09;5002374;28;20181;-44
2022/12/31 02:01:18;;;;;;;9.55;3.08;;;;;;;9.89;100.00;99927.31;4997636;28;20192;-45
2022/12/31 02:03:44;;;;;;;10.65;2.75;;;;;;;9.87;100.00;99926.50;4994426;28;20220;-46
2022/12/31 02:06:38;;;;;;;15.48;3.50;;;;;;;9.92;100.00;99926.28;4996278;28;20541;-46
2022/12/31 02:09:03;;;;;;;8.77;2.40;;;;;;;9.89;100.00;99927.31;4990701;28;20204;-46
2022/12/31 02:11:35;;;;;;;9.27;2.28;;;;;;;9.95;100.00;99919.91;4994592;28;20223;-43
2022/12/31 02:14:35;;;;;;;11.43;3.40;;;;;;;9.92;100.00;99926.28;5002295;28;20208;-46
2022/12/31 02:17:34;;;;;;;10.55;2.75;;;;;;;9.89;100.00;99932.66;4997355;28;20685;-46
2022/12/31 02:20:24;;;;;;;9.43;3.10;;;;;;;9.83;100.00;99932.94;4994609;28;20278;-46
2022/12/31 02:22:59;;;;;;;7.22;2.72;;;;;;;9.89;100.00;99929.97;5001975;28;20678;-44
2022/12/31 02:25:46;;;;;;;9.43;2.60;;;;;;;9.87;100.00;99929.19;4996537;28;20252;-46
2022/12/31 02:28:30;;;;;;;8.77;2.38;;;;;;;9.87;100.00;99933.69;4999760;28;20345;-45
2022/12/31 02:31:08;;;;;;;9.88;2.85;;;;;;;9.88;100.00;99933.63;4993756;28;20182;-46
2022/12/31 02:33:49;;;;;;;12.13;2.40;;;;;;;9.88;100.00;99924.69;4998380;28;20557;-45
2022/12/31 02:36:20;;;;;;;11.18;3.10;;;;;;;9.90;100.00;99930.84;4999531;28;20651;-47
2022/12/31 02:38:48;;;;;;;10.55;2.92;;;;;;;9.89;100.00;99932.66;4995422;28;20281;-45
2022/12/31 02:44:24;;;;;;;10.85;2.63;;;;;;;9.85;100.00;99933.75;4999957;28;20335;-45
2022/12/31 02:47:12;;;;;;;13.02;3.03;;;;;;;9.79;100.00;99936.72;4989829;28;20183;-47
2022/12/31 02:49:53;;;;;;;9.40;3.20;;;;;;;9.79;100.00;99941.22;5002385;28;20191;-45
2022/12/31 02:52:21;;;;;;;8.85;2.60;;;;;;;9.81;100.00;99940.19;4992939;28;20659;-47
2022/12/31 02:55:08;;;;;;;9.10;3.33;;;;;;;9.76;100.00;99947.59;5002744;28;20186;-46
2022/12/31 02:58:07;;;;;;;7.18;2.35;;;;;;;9.81;100.00;99934.84;4999945;28;20182;-45
2022/12/31 03:03:26;;;;;;;9.00;2.45;;;;;;;9.77;100.00;99927.03;4995601;28;20743;-47
2022/12/31 03:05:52;;;;;;;12.27;2.47;;;;;;;9.76;100.00;99933.34;5001863;28;20192;-46
2022/12/31 03:08:22;;;;;;;12.82;3.10;;;;;;;9.76;100.00;99928.00;5005499;28;20185;-45
2022/12/31 03:10:47;;;;;;;9.82;2.70;;;;;;;9.77;100.00;99941.28;5009133;28;20189;-45
2022/12/31 03:13:13;;;;;;;12.02;2.10;;;;;;;9.76;100.00;99936.88;5004442;28;20262;-45
2022/12/31 03:15:38;;;;;;;8.88;3.03;;;;;;;9.76;100.00;99941.38;4999554;28;20192;-44
2022/12/31 03:18:06;;;;;;;9.02;2.22;;;;;;;9.78;100.00;99939.50;4998256;28;20180;-46
2022/12/31 03:23:33;;;;;;;13.82;2.78;;;;;;;9.74;100.00;99933.41;5002499;28;20212;-46
2022/12/31 03:25:59;;;;;;;12.43;2.40;;;;;;;9.70;100.00;99937.19;5000919;28;20212;-46
2022/12/31 03:28:27;;;;;;;13.52;2.20;;;;;;;9.69;100.00;99944.34;5007037;28;20195;-46
2022/12/31 03:30:58;;;;;;;8.15;2.45;;;;;;;9.66;100.00;99939.16;4998364;28;20264;-46
2022/12/31 03:33:28;;;;;;;8.93;2.17;;;;;;;9.64;100.00;99950.84;5002011;28;20213;-46
2022/12/31 03:35:54;;;;;;;6.80;1.88;;;;;;;9.63;100.00;99943.78;4997154;28;20217;-46
2022/12/31 03:38:20;;;;;;;10.30;2.60;;;;;;;9.65;100.00;99949.91;5000267;28;20243;-48
2022/12/31 03:40:51;;;;;;;11.02;2.25;;;;;;;9.69;100.00;99954.19;5001078;28;20216;-45
2022/12/31 03:43:18;;;;;;;8.52;1.90;;;;;;;9.71;100.00;99941.59;4999691;28;20209;-46
2022/12/31 03:45:47;;;;;;;9.77;2.17;;;;;;;9.66;100.00;99935.59;5009598;28;20230;-44
2022/12/31 03:48:13;;;;;;;9.50;2.78;;;;;;;9.59;100.00;99937.69;5002999;28;20206;-46
2022/12/31 03:50:38;;;;;;;13.13;2.60;;;;;;;9.62;100.00;99940.25;4998778;28;20279;-46
2022/12/31 03:53:04;;;;;;;9.85;2.50;;;;;;;9.61;100.00;99942.97;5000575;28;20213;-46
2022/12/31 03:55:30;;;;;;;13.13;2.25;;;;;;;9.62;100.00;99945.59;5006077;28;20188;-46
2022/12/31 03:57:55;;;;;;;6.88;1.88;;;;;;;9.58;100.00;99937.78;4991014;28;20197;-45
2022/12/31 04:00:21;;;;;;;8.82;2.22;;;;;;;9.61;100.00;99941.16;4999880;28;20260;-46
2022/12/31 04:02:48;;;;;;;5.93;2.22;;;;;;;9.59;100.00;99927.00;5001184;28;20239;-46
2022/12/31 04:05:15;;;;;;;8.95;2.28;;;;;;;9.59;100.00;99921.66;4999535;28;20642;-48
2022/12/31 04:07:41;;;;;;;8.35;2.25;;;;;;;9.63;100.00;99925.91;5008522;28;20184;-46
2022/12/31 04:10:12;;;;;;;9.48;2.33;;;;;;;9.66;100.00;99924.91;4999940;28;20208;-46
2022/12/31 04:12:37;;;;;;;9.07;2.25;;;;;;;9.60;100.00;99942.13;4998295;28;20295;-45
2022/12/31 04:15:04;;;;;;;9.00;2.33;;;;;;;9.57;100.00;99941.41;5003549;28;20354;-46
2022/12/31 04:17:29;;;;;;;16.02;3.22;;;;;;;9.55;100.00;99952.16;5005174;28;20185;-46
2022/12/31 04:19:55;;;;;;;9.63;2.30;;;;;;;9.58;100.00;99951.16;4998729;28;20279;-48
2022/12/31 04:22:20;;;;;;;7.50;2.35;;;;;;;9.54;100.00;99952.25;4995704;28;20212;-45
2022/12/31 04:24:46;;;;;;;10.20;2.42;;;;;;;9.48;100.00;99954.25;4993951;28;20210;-47
2022/12/31 04:27:13;;;;;;;7.97;2.40;;;;;;;9.49;100.00;99953.34;5000080;28;20349;-47
2022/12/31 04:29:39;;;;;;;10.40;2.78;;;;;;;9.47;100.00;99957.88;5000613;28;20189;-47
2022/12/31 04:32:05;;;;;;;8.00;2.55;;;;;;;9.48;100.00;99964.94;4998642;28;20223;-46
2022/12/31 04:34:31;;;;;;;7.93;2.50;;;;;;;9.53;100.00;99961.19;5002980;28;20192;-47
2022/12/31 04:36:57;;;;;;;11.93;2.40;;;;;;;9.54;100.00;99965.63;4997577;28;20186;-46
2022/12/31 04:39:23;;;;;;;9.23;2.47;;;;;;;9.52;100.00;99963.00;4993906;28;20757;-47
2022/12/31 04:41:49;;;;;;;9.77;2.63;;;;;;;9.52;100.00;99957.66;5002992;28;20745;-45
2022/12/31 04:44:14;;;;;;;11.50;2.58;;;;;;;9.48;100.00;99966.78;5009663;28;20283;-46
2022/12/31 04:46:40;;;;;;;9.82;2.55;;;;;;;9.48;100.00;99967.63;4997569;28;20272;-46
2022/12/31 04:49:06;;;;;;;8.32;2.22;;;;;;;9.44;100.00;99973.19;5002636;28;20628;-45
2022/12/31 04:51:32;;;;;;;7.32;2.17;;;;;;;9.48;100.00;99977.47;4992345;28;20193;-47
2022/12/31 04:53:58;;;;;;;12.07;2.60;;;;;;;9.47;100.00;99984.63;5000438;28;20223;-47
2022/12/31 04:56:24;;;;;;;6.80;2.38;;;;;;;9.46;100.00;99998.91;4999510;28;20279;-45
2022/12/31 04:58:50;;;;;;;9.35;2.72;;;;;;;9.52;100.00;99996.91;5001415;28;20185;-47
2022/12/31 05:01:16;;;;;;;7.00;2.50;;;;;;;9.48;100.00;99999.72;5006586;28;20213;-45
2022/12/31 05:03:41;;;;;;;9.20;2.22;;;;;;;9.53;100.00;99995.97;5004988;28;20227;-46
2022/12/31 05:06:17;;;;;;;10.38;2.13;;;;;;;9.48;100.00;100002.38;4991774;28;20601;-46
2022/12/31 05:08:43;;;;;;;7.57;2.20;;;;;;;9.49;100.00;99995.25;5002433;28;20184;-46
2022/12/31 05:11:09;;;;;;;9.63;2.58;;;;;;;9.47;100.00;99999.81;5002250;28;20204;-48
2022/12/31 05:13:35;;;;;;;6.93;2.83;;;;;;;9.46;100.00;100001.59;4994797;28;20209;-46
2022/12/31 05:16:02;;;;;;;9.65;2.80;;;;;;;9.42;100.00;99992.00;4999217;28;20182;-46
2022/12/31 05:18:28;;;;;;;12.25;2.58;;;;;;;9.43;100.00;99993.72;4998733;28;20241;-46
2022/12/31 05:20:54;;;;;;;7.15;2.08;;;;;;;9.41;100.00;99979.56;4992817;28;20205;-45
2022/12/31 05:23:19;;;;;;;8.95;2.67;;;;;;;9.42;100.00;99997.34;4996511;28;20324;-46
2022/12/31 05:25:46;;;;;;;12.18;2.92;;;;;;;9.34;100.00;99987.97;4990669;28;20185;-46
2022/12/31 05:28:12;;;;;;;9.00;3.75;;;;;;;9.34;100.00;99983.47;5000705;28;20173;-45
2022/12/31 05:30:37;;;;;;;8.10;3.75;;;;;;;9.36;100.00;99992.28;5006652;28;20184;-48
2022/12/31 05:33:03;;;;;;;11.38;5.10;;;;;;;9.40;100.00;99998.34;5000255;28;20582;-46
2022/12/31 05:35:29;;;;;;;8.77;6.05;;;;;;;9.38;100.00;99992.19;5001149;28;20270;-45
2022/12/31 05:37:54;;;;;;;12.50;7.47;;;;;;;9.41;100.00;99992.94;4999338;28;20212;-45
2022/12/31 05:40:20;;;;;;;11.10;6.75;;;;;;;9.47;100.00;99989.97;5000430;28;20220;-44
2022/12/31 05:42:46;;;;;;;11.63;6.63;;;;;;;9.43;100.00;99979.50;5008832;28;20213;-46
2022/12/31 05:45:12;;;;;;;12.93;7.97;;;;;;;9.39;100.00;99977.91;4996426;28;20193;-45
2022/12/31 05:47:41;;;;;;;12.25;8.52;;;;;;;9.45;100.00;99969.59;4999181;28;20235;-44
2022/12/31 05:50:09;;;;;;;9.85;8.48;;;;;;;9.42;100.00;99977.75;5003027;28;20244;-44
2022/12/31 05:52:36;;;;;;;12.90;8.27;;;;;;;9.52;100.00;99981.72;4999732;28;20200;-45
2022/12/31 05:55:02;;;;;;;12.68;8.75;;;;;;;9.53;100.00;99993.28;4995961;28;20192;-45
2022/12/31 05:57:27;;;;;;;10.55;8.77;;;;;;;9.54;100.00;100003.06;5004770;28;20184;-44
2022/12/31 05:59:53;;;;;;;12.07;8.90;;;;;;;9.57;100.00;100000.22;4998079;28;20649;-45
2022/12/31 06:02:20;;;;;;;11.68;8.88;;;;;;;9.51;100.00;99992.50;4999111;28;20232;-45
2022/12/31 06:04:45;;;;;;;11.20;9.43;;;;;;;9.51;100.00;99995.16;5000816;28;20189;-47
2022/12/31 06:07:11;;;;;;;10.38;8.98;;;;;;;9.49;100.00;99988.09;5003655;28;20191;-44
2022/12/31 06:09:36;;;;;;;11.75;9.32;;;;;;;9.47;100.00;99994.47;4994623;28;20242;-46
2022/12/31 06:12:03;;;;;;;13.80;10.13;;;;;;;9.46;100.00;99998.91;4995753;28;20308;-46
2022/12/31 06:14:29;;;;;;;11.90;10.00;;;;;;;9.52;100.00;100002.25;4999374;28;20271;-45
2022/12/31 06:16:54;;;;;;;11.70;10.23;;;;;;;9.49;100.00;100008.63;5006538;28;20187;-44
2022/12/31 06:19:20;;;;;;;11.50;10.27;;;;;;;9.53;100.00;100012.00;4996365;28;20644;-47
2022/12/31 06:21:45;;;;;;;11.13;9.30;;;;;;;9.54;100.00;100014.63;4999411;28;20213;-45
2022/12/31 06:24:11;;;;;;;12.55;10.50;;;;;;;9.49;100.00;100020.19;4991898;28;20205;-46
2022/12/31 06:26:37;;;;;;;11.60;10.05;;;;;;;9.54;100.00;100024.44;5000707;28;20282;-47
2022/12/31 06:29:02;;;;;;;14.73;9.70;;;;;;;9.57;100.00;100021.63;4999253;28;20204;-45
2022/12/31 06:31:28;;;;;;;10.55;9.40;;;;;;;9.52;100.00;100016.50;4995878;28;20644;-46
2022/12/31 06:33:54;;;;;;;10.95;9.35;;;;;;;9.51;100.00;100025.47;4996764;28;20251;-46
2022/12/31 06:36:20;;;;;;;9.80;8.65;;;;;;;9.52;100.00;100034.34;5001961;28;20192;-46
2022/12/31 06:38:46;;;;;;;13.77;9.90;;;;;;;9.47;100.00;100040.78;5001712;28;20272;-44
2022/12/31 06:41:14;;;;;;;10.40;8.90;;;;;;;9.48;100.00;100039.81;5006956;28;20299;-45
2022/12/31 06:43:40;;;;;;;12.63;8.98;;;;;;;9.50;100.00;100031.75;5007997;28;20293;-44
2022/12/31 06:46:08;;;;;;;9.65;8.63;;;;;;;9.51;100.00;100040.63;5000568;28;20240;-44
2022/12/31 06:48:34;;;;;;;10.15;7.80;;;;;;;9.55;100.00;100031.53;5000754;28;20263;-44
2022/12/31 06:51:05;;;;;;;9.95;7.50;;;;;;;9.56;100.00;100038.63;5002418;28;20203;-45
2022/12/31 06:53:30;;;;;;;8.93;7.30;;;;;;;9.55;100.00;100029.72;5004045;28;20213;-45
2022/12/31 06:56:04;;;;;;;9.48;7.25;;;;;;;9.52;100.00;100010.28;5002032;28;20203;-45
2022/12/31 06:58:30;;;;;;;9.98;6.93;;;;;;;9.52;100.00;100012.97;5000619;28;20185;-45
2022/12/31 07:01:15;;;;;;;10.45;6.60;;;;;;;9.55;100.00;100026.16;5000842;28;20201;-45
2022/12/31 07:03:47;;;;;;;9.18;5.97;;;;;;;9.55;100.00;100027.03;5006746;28;20213;-45
2022/12/31 07:06:25;;;;;;;6.50;5.03;;;;;;;9.55;100.00;100015.47;4998706;28;20405;-46
2022/12/31 07:09:08;;;;;;;8.82;5.97;;;;;;;9.45;100.00;100007.03;5004020;28;20184;-45
2022/12/31 07:12:26;;;;;;;7.93;6.00;;;;;;;9.41;100.00;100003.63;4997477;28;20203;-45
2022/12/31 07:14:59;;;;;;;6.07;5.47;;;;;;;9.45;100.00;99999.88;4970193;28;20316;-46
2022/12/31 07:17:51;;;;;;;8.98;6.03;;;;;;;9.47;100.00;100015.84;5004136;28;20226;-45
2022/12/31 07:20:18;;;;;;;9.98;6.05;;;;;;;9.46;100.00;100020.31;5000481;28;20616;-46
2022/12/31 07:22:44;;;;;;;7.28;6.57;;;;;;;9.53;100.00;100012.00;5004160;28;20228;-46
2022/12/31 07:25:15;;;;;;;9.00;7.30;;;;;;;9.50;100.00;100005.00;4997997;28;20185;-46
2022/12/31 07:27:43;;;;;;;11.07;7.70;;;;;;;9.55;100.00;100000.28;5002800;28;20232;-45
2022/12/31 07:30:12;;;;;;;8.65;7.50;;;;;;;9.55;100.00;99999.44;5001857;28;20229;-47
2022/12/31 07:32:59;;;;;;;9.85;7.55;;;;;;;9.52;100.00;100010.28;5002361;28;20197;-44
2022/12/31 07:35:27;;;;;;;8.63;7.75;;;;;;;9.55;100.00;100011.00;5006133;28;20181;-43
2022/12/31 07:38:05;;;;;;;9.32;7.45;;;;;;;9.60;100.00;100006.31;5006043;28;20189;-44
2022/12/31 07:40:52;;;;;;;11.50;7.68;;;;;;;9.65;100.00;100035.50;5005261;28;20205;-42
2022/12/31 07:43:29;;;;;;;8.52;7.40;;;;;;;9.69;100.00;100026.41;5008375;28;20200;-43
2022/12/31 07:46:12;;;;;;;10.60;7.75;;;;;;;9.69;100.00;100035.28;5008061;28;20195;-45
2022/12/31 07:48:38;;;;;;;8.45;7.60;;;;;;;9.72;100.00;100036.94;4998209;28;20188;-42
2022/12/31 07:51:04;;;;;;;9.23;7.30;;;;;;;9.70;100.00;100033.47;5005714;28;20178;-45
2022/12/31 07:53:30;;;;;;;9.52;7.40;;;;;;;9.71;100.00;100037.91;4995012;28;20248;-41
2022/12/31 07:55:58;;;;;;;7.60;6.78;;;;;;;9.68;100.00;100040.69;5006692;28;20263;-42
2022/12/31 07:58:39;;;;;;;8.60;6.50;;;;;;;9.71;100.00;100045.91;5011732;28;20201;-43
2022/12/31 08:01:10;;;;;;;6.97;6.25;;;;;;;9.73;100.00;100041.38;5010952;28;20196;-42
2022/12/31 08:03:55;;;;;;;7.88;6.22;;;;;;;9.72;100.00;100061.00;5010039;28;20300;-42
2022/12/31 08:06:42;;;;;;;7.93;5.63;;;;;;;9.77;100.00;100067.00;5006552;28;20188;-41
2022/12/31 08:09:29;;;;;;;6.38;5.75;;;;;;;9.79;100.00;100073.16;5003720;28;20196;-43
2022/12/31 08:11:57;;;;;;;5.82;5.07;;;;;;;9.78;100.00;100079.47;5000850;28;20319;-42
2022/12/31 08:14:25;;;;;;;6.68;4.93;;;;;;;9.82;100.00;100072.16;5003633;28;20243;-41
2022/12/31 08:16:51;;;;;;;6.18;5.20;;;;;;;9.85;100.00;100055.97;4994233;28;20296;-41
2022/12/31 08:19:23;;;;;;;5.03;4.55;;;;;;;9.83;100.00;100050.66;4999553;28;20184;-43
2022/12/31 08:22:19;;;;;;;8.68;4.68;;;;;;;9.82;100.00;100043.59;5008586;28;20223;-42
2022/12/31 08:24:47;;;;;;;4.47;4.07;;;;;;;9.80;100.00;100045.47;5003126;28;20208;-42
2022/12/31 08:27:26;;;;;;;5.85;4.40;;;;;;;9.78;100.00;100041.16;5008110;28;20287;-42
2022/12/31 08:30:12;;;;;;;4.78;3.70;;;;;;;9.78;100.00;100036.66;5001462;28;20190;-44
2022/12/31 08:33:17;;;;;;;4.13;3.72;;;;;;;9.79;100.00;100030.34;5002242;28;20212;-42
2022/12/31 08:36:16;;;;;;;4.30;3.90;;;;;;;9.78;100.00;100065.22;4949321;29;20269;-43
2022/12/31 08:39:02;;;;;;;4.30;3.58;;;;;;;9.82;100.00;100048.94;4933224;28;20291;-43
2022/12/31 08:41:36;;;;;;;3.83;3.22;;;;;;;9.77;100.00;100050.97;4999590;28;20216;-44
2022/12/31 08:44:05;;;;;;;4.55;3.47;;;;;;;9.78;100.00;100052.72;4994919;28;20208;-40
2022/12/31 08:46:37;;;;;;;4.18;3.30;;;;;;;9.76;100.00;100041.22;5010374;28;20627;-43
2022/12/31 08:49:03;;;;;;;3.22;2.97;;;;;;;9.79;100.00;100035.69;5002162;28;20188;-43
2022/12/31 08:51:29;;;;;;;3.67;3.38;;;;;;;9.78;100.00;100052.72;4999842;28;20196;-45
2022/12/31 08:53:55;;;;;;;4.97;3.17;;;;;;;9.78;100.00;100073.25;4995417;28;20201;-45
2022/12/31 08:56:30;;;;;;;4.45;3.00;;;;;;;9.73;100.00;100077.94;4998507;28;20501;-44
2022/12/31 08:59:17;;;;;;;3.63;3.33;;;;;;;9.73;100.00;100065.44;4999670;28;20219;-41
2022/12/31 09:02:06;;;;;;;4.63;3.33;;;;;;;9.68;100.00;100078.16;5006336;28;20207;-45
2022/12/31 09:05:00;;;;;;;3.10;2.83;;;;;;;9.76;100.00;100081.34;4977373;28;20286;-43
2022/12/31 09:07:39;;;;;;;4.50;3.08;;;;;;;9.72;100.00;100087.75;4991756;28;20204;-44
2022/12/31 09:10:28;;;;;;;4.32;2.85;;;;;;;9.72;100.00;100085.09;5009409;28;20258;-42
2022/12/31 09:12:54;;;;;;;4.82;3.10;;;;;;;9.75;100.00;100079.63;5001952;28;20803;-43
2022/12/31 09:15:28;;;;;;;3.17;2.47;;;;;;;9.75;100.00;100089.44;4995050;28;20349;-43
2022/12/31 09:17:54;;;;;;;4.38;3.00;;;;;;;9.77;100.00;100083.06;4999025;28;20241;-44
2022/12/31 09:20:26;;;;;;;2.60;2.28;;;;;;;9.73;100.00;100102.00;5008151;28;20193;-45
2022/12/31 09:22:53;;;;;;;2.67;2.47;;;;;;;9.73;100.00;100085.94;5005304;28;20270;-43
2022/12/31 09:25:20;;;;;;;2.63;2.08;;;;;;;9.75;100.00;100092.09;5010555;28;20321;-41
2022/12/31 09:27:59;;;;;;;2.55;2.30;;;;;;;9.75;100.00;100079.63;5008067;28;20196;-43
2022/12/31 09:30:28;;;;;;;2.75;2.13;;;;;;;9.72;100.00;100090.44;5010272;28;20647;-42
2022/12/31 09:33:02;;;;;;;2.80;2.30;;;;;;;9.72;100.00;100086.91;4992072;28;20220;-41
2022/12/31 09:35:57;;;;;;;2.90;2.13;;;;;;;9.72;100.00;100086.91;5012284;28;20216;-43
2022/12/31 09:39:13;;;;;;;2.03;1.80;;;;;;;9.69;100.00;100090.59;4994052;28;20251;-43
2022/12/31 09:41:42;;;;;;;2.10;1.98;;;;;;;9.69;100.00;100088.78;4968317;28;20772;-41
2022/12/31 09:44:31;;;;;;;3.45;2.38;;;;;;;9.69;100.00;100098.63;4968675;28;20976;-45
2022/12/31 09:47:05;;;;;;;2.30;1.88;;;;;;;9.67;100.00;100097.81;4988512;28;20206;-42
2022/12/31 09:49:55;;;;;;;2.97;2.55;;;;;;;9.65;100.00;100097.88;4994687;28;20598;-43
2022/12/31 09:52:46;;;;;;;2.67;1.98;;;;;;;9.67;100.00;100100.50;5002473;28;20220;-42
2022/12/31 09:55:38;;;;;;;2.30;1.98;;;;;;;9.65;100.00;100097.88;4998823;28;20320;-44
2022/12/31 09:58:42;;;;;;;2.22;2.03;;;;;;;9.64;100.00;100093.50;5016350;28;20264;-42
2022/12/31 10:01:32;;;;;;;2.10;1.73;;;;;;;9.67;100.00;100098.69;5009518;28;20192;-41
2022/12/31 10:04:10;;;;;;;2.30;1.75;;;;;;;9.64;100.00;100093.50;5005096;28;20583;-42
2022/12/31 10:06:41;;;;;;;2.38;2.03;;;;;;;9.74;100.00;100096.59;4997417;28;20168;-43
2022/12/31 10:09:25;;;;;;;1.80;1.70;;;;;;;9.72;100.00;100094.94;5009753;28;20193;-42
2022/12/31 10:12:05;;;;;;;1.60;1.50;;;;;;;9.68;100.00;100084.34;4994443;28;20195;-43
2022/12/31 10:14:34;;;;;;;1.70;1.35;;;;;;;9.61;100.00;100082.06;5007856;28;20668;-40
2022/12/31 10:17:21;;;;;;;2.20;1.20;;;;;;;9.62;100.00;100071.28;5013346;28;20180;-42
2022/12/31 10:19:56;;;;;;;1.48;1.27;;;;;;;9.66;100.00;100078.25;5008837;28;20380;-42
2022/12/31 10:22:52;;;;;;;1.33;1.23;;;;;;;9.67;100.00;100073.75;4999772;28;20283;-44
2022/12/31 10:25:41;;;;;;;2.95;1.10;;;;;;;9.66;100.00;100069.31;4993860;28;20674;-41
2022/12/31 10:28:31;;;;;;;1.67;1.00;;;;;;;9.64;100.00;100069.41;5006410;28;20302;-43
2022/12/31 10:31:22;;;;;;;2.42;1.00;;;;;;;9.66;100.00;100059.50;5004942;28;20188;-44
2022/12/31 10:34:11;;;;;;;2.22;0.77;;;;;;;9.63;100.00;100056.09;5003525;28;20268;-44
2022/12/31 10:36:51;;;;;;;1.40;0.93;;;;;;;9.60;100.00;100049.09;4996462;28;20161;-44
2022/12/31 10:39:26;;;;;;;1.33;1.17;;;;;;;9.60;100.00;100041.06;5033082;28;20180;-43
2022/12/31 10:42:06;;;;;;;3.08;1.73;;;;;;;9.57;100.00;100056.38;5005646;28;20662;-42
2022/12/31 10:44:43;;;;;;;1.95;1.50;;;;;;;9.59;100.00;100044.66;5012406;28;20164;-41
2022/12/31 10:47:28;;;;;;;1.50;1.40;;;;;;;9.64;100.00;100039.09;5010647;28;20203;-42
2022/12/31 10:50:29;;;;;;;1.92;1.73;;;;;;;9.59;100.00;100051.84;5000603;28;20168;-43
2022/12/31 10:53:19;;;;;;;2.28;2.08;;;;;;;9.57;100.00;100051.03;4990114;28;20272;-43
2022/12/31 10:56:06;;;;;;;2.38;1.80;;;;;;;9.64;100.00;100033.75;5009138;28;20189;-43
2022/12/31 10:58:44;;;;;;;3.80;1.88;;;;;;;9.55;100.00;100048.44;5005380;28;20189;-42
2022/12/31 11:01:19;;;;;;;1.65;1.55;;;;;;;9.55;100.00;100044.88;5009351;28;20238;-41
2022/12/31 11:03:59;;;;;;;2.83;2.20;;;;;;;9.52;100.00;100058.41;4994798;28;20276;-44
2022/12/31 11:06:53;;;;;;;2.72;1.73;;;;;;;9.51;100.00;100054.00;5008760;28;20356;-41
2022/12/31 11:09:57;;;;;;;3.13;1.65;;;;;;;9.46;100.00;100049.72;4999435;28;20759;-42
2022/12/31 11:12:22;;;;;;;1.60;1.50;;;;;;;9.42;100.00;100032.13;5001589;28;20212;-43
2022/12/31 11:15:03;;;;;;;2.60;1.40;;;;;;;9.39;100.00;100040.25;5001646;28;20241;-42
2022/12/31 11:17:47;;;;;;;2.35;1.23;;;;;;;9.33;100.00;100035.19;5004521;28;20181;-43
2022/12/31 11:20:19;;;;;;;1.23;1.20;;;;;;;9.30;100.00;100032.66;5007632;28;20169;-42
2022/12/31 11:22:55;;;;;;;1.30;1.13;;;;;;;9.28;100.00;100022.03;5005057;28;20239;-41
2022/12/31 11:25:30;;;;;;;1.88;0.93;;;;;;;9.25;100.00;100032.88;5000060;28;20568;-43
2022/12/31 11:28:22;;;;;;;0.80;0.80;;;;;;;9.26;100.00;100034.59;5012505;28;20219;-42
2022/12/31 11:30:50;;;;;;;1.08;0.82;;;;;;;9.20;100.00;100018.84;5002260;28;20252;-42
2022/12/31 11:33:26;;;;;;;3.30;1.20;;;;;;;9.23;100.00;100017.84;5007718;28;20675;-41
2022/12/31 11:36:13;;;;;;;1.90;0.88;;;;;;;9.15;100.00;100015.50;5001263;28;20671;-41
2022/12/31 11:38:50;;;;;;;1.77;0.77;;;;;;;9.16;100.00;100025.28;4994612;28;20232;-41
2022/12/31 11:41:33;;;;;;;1.52;0.90;;;;;;;9.20;100.00;100009.97;5000527;28;20240;-44
2022/12/31 11:44:17;;;;;;;2.13;0.73;;;;;;;9.24;100.00;99998.19;5000580;28;20248;-43
2022/12/31 11:47:01;;;;;;;1.45;0.88;;;;;;;9.26;100.00;100001.66;5007092;28;20188;-40
2022/12/31 11:49:39;;;;;;;1.85;0.93;;;;;;;9.19;100.00;99998.41;4997097;28;20269;-43
2022/12/31 11:52:16;;;;;;;2.15;1.10;;;;;;;9.13;100.00;99971.97;4997358;28;20565;-45
2022/12/31 11:54:48;;;;;;;2.50;1.35;;;;;;;9.13;100.00;99969.28;4998443;28;20184;-45
2022/12/31 11:57:16;;;;;;;1.95;1.30;;;;;;;9.14;100.00;99959.44;5002917;28;20558;-42
2022/12/31 11:59:42;;;;;;;1.20;1.20;;;;;;;9.15;100.00;99970.09;4998325;28;20200;-43
2022/12/31 12:02:31;;;;;;;4.00;1.60;;;;;;;9.19;100.00;99973.50;5003071;28;20201;-41